createdAt,value
2019-01-11T00:02:18.230Z,2.50
2019-01-11T00:04:47.937Z,2.50
2019-01-11T00:07:17.600Z,2.50
2019-01-11T00:09:47.290Z,2.50
2019-01-11T00:12:16.950Z,2.60
2019-01-11T00:14:46.630Z,2.60
2019-01-11T00:17:16.346Z,2.60
2019-01-11T00:19:46.116Z,2.60
2019-01-11T00:22:15.769Z,2.60
2019-01-11T00:24:45.468Z,2.60
2019-01-11T00:27:15.238Z,2.60
2019-01-11T00:29:44.985Z,2.70
2019-01-11T00:32:14.749Z,2.70
2019-01-11T00:34:44.422Z,2.70
2019-01-11T00:37:14.407Z,2.70
2019-01-11T00:39:44.170Z,2.70
2019-01-11T00:42:13.856Z,2.60
2019-01-11T00:44:43.689Z,2.70
2019-01-11T00:47:13.432Z,2.70
2019-01-11T00:49:43.101Z,2.70
2019-01-11T00:52:12.944Z,2.70
2019-01-11T00:54:42.690Z,2.70
2019-01-11T00:57:12.333Z,2.70
2019-01-11T00:59:42.010Z,2.60
2019-01-11T01:02:11.892Z,2.60
2019-01-11T01:04:41.599Z,2.70
2019-01-11T01:07:12.054Z,2.60
2019-01-11T01:09:41.769Z,2.60
2019-01-11T01:12:11.956Z,2.60
2019-01-11T01:14:41.722Z,2.60
2019-01-11T01:17:11.627Z,2.70
2019-01-11T01:19:41.344Z,2.70
2019-01-11T01:22:11.281Z,2.70
2019-01-11T01:24:41.008Z,2.70
2019-01-11T01:27:10.840Z,2.60
2019-01-11T01:29:40.699Z,2.60
2019-01-11T01:32:10.483Z,2.60
2019-01-11T01:34:40.227Z,2.60
2019-01-11T01:37:09.999Z,2.70
2019-01-11T01:39:39.694Z,2.60
2019-01-11T01:42:09.479Z,2.70
2019-01-11T01:44:39.299Z,2.70
2019-01-11T01:47:09.719Z,2.60
2019-01-11T01:49:39.527Z,2.70
2019-01-11T01:52:09.317Z,2.70
2019-01-11T01:54:39.161Z,2.70
2019-01-11T01:57:08.997Z,2.70
2019-01-11T01:59:38.848Z,2.70
2019-01-11T02:02:08.648Z,2.70
2019-01-11T02:04:38.398Z,2.70
2019-01-11T02:07:08.188Z,2.60
2019-01-11T02:09:37.962Z,2.70
2019-01-11T02:12:07.770Z,2.60
2019-01-11T02:14:37.433Z,2.60
2019-01-11T02:17:07.245Z,2.70
2019-01-11T02:19:36.989Z,2.70
2019-01-11T02:22:06.940Z,2.70
2019-01-11T02:24:36.682Z,2.70
2019-01-11T02:27:06.455Z,2.70
2019-01-11T02:29:36.161Z,2.70
2019-01-11T02:32:06.148Z,2.70
2019-01-11T02:34:35.849Z,2.70
2019-01-11T02:37:05.773Z,2.80
2019-01-11T02:39:35.477Z,2.80
2019-01-11T02:42:05.487Z,2.80
2019-01-11T02:44:35.252Z,2.70
2019-01-11T02:47:05.059Z,2.70
2019-01-11T02:49:39.936Z,2.70
2019-01-11T02:52:06.900Z,2.70
2019-01-11T02:54:36.572Z,2.60
2019-01-11T02:57:06.398Z,2.60
2019-01-11T02:59:36.059Z,2.60
2019-01-11T03:02:06.425Z,2.70
2019-01-11T03:04:36.172Z,2.70
2019-01-11T03:07:05.989Z,2.70
2019-01-11T03:09:35.664Z,2.70
2019-01-11T03:12:05.633Z,2.70
2019-01-11T03:14:35.462Z,2.70
2019-01-11T03:17:05.406Z,2.70
2019-01-11T03:19:35.190Z,2.70
2019-01-11T03:22:05.172Z,2.70
2019-01-11T03:24:34.901Z,2.70
2019-01-11T03:27:04.649Z,2.70
2019-01-11T03:29:34.773Z,2.70
2019-01-11T03:32:04.798Z,2.70
2019-01-11T03:34:36.116Z,2.70
2019-01-11T03:37:06.240Z,2.70
2019-01-11T03:39:35.876Z,2.70
2019-01-11T03:42:07.382Z,2.70
2019-01-11T03:44:37.043Z,2.80
2019-01-11T03:47:06.951Z,2.80
2019-01-11T03:49:36.615Z,2.80
2019-01-11T03:52:06.611Z,2.80
2019-01-11T03:54:36.361Z,2.80
2019-01-11T03:57:06.323Z,2.80
2019-01-11T03:59:36.168Z,2.80
2019-01-11T04:02:06.307Z,2.80
2019-01-11T04:04:36.047Z,2.80
2019-01-11T04:07:06.034Z,2.80
2019-01-11T04:09:35.811Z,2.80
2019-01-11T04:12:05.627Z,2.80
2019-01-11T04:14:35.392Z,2.80
2019-01-11T04:17:05.303Z,2.90
2019-01-11T04:19:35.052Z,2.90
2019-01-11T04:22:09.421Z,2.90
2019-01-11T04:24:40.908Z,2.90
2019-01-11T04:27:10.668Z,2.90
2019-01-11T04:29:40.348Z,2.90
2019-01-11T04:32:10.201Z,2.90
2019-01-11T04:34:39.948Z,2.90
2019-01-11T04:37:09.614Z,2.90
2019-01-11T04:39:39.299Z,3.00
2019-01-11T04:42:09.021Z,2.90
2019-01-11T04:44:38.713Z,3.00
2019-01-11T04:47:08.357Z,3.00
2019-01-11T04:49:38.628Z,3.00
2019-01-11T04:52:08.378Z,3.00
2019-01-11T04:54:38.092Z,3.00
2019-01-11T04:57:07.831Z,3.00
2019-01-11T04:59:37.899Z,3.00
2019-01-11T05:02:07.568Z,3.10
2019-01-11T05:04:37.258Z,3.00
2019-01-11T05:07:06.983Z,3.00
2019-01-11T05:09:36.662Z,3.00
2019-01-11T05:12:06.330Z,3.00
2019-01-11T05:14:36.061Z,3.10
2019-01-11T05:17:05.768Z,3.10
2019-01-11T05:19:35.522Z,3.10
2019-01-11T05:22:05.516Z,3.10
2019-01-11T05:24:35.306Z,3.10
2019-01-11T05:27:05.052Z,3.10
2019-01-11T05:29:34.745Z,3.10
2019-01-11T05:32:04.627Z,3.10
2019-01-11T05:34:34.417Z,3.10
2019-01-11T05:37:04.210Z,3.10
2019-01-11T05:39:33.982Z,3.10
2019-01-11T05:42:03.726Z,3.10
2019-01-11T05:44:33.592Z,3.10
2019-01-11T05:47:03.245Z,3.10
2019-01-11T05:49:32.918Z,3.10
2019-01-11T05:52:02.633Z,3.10
2019-01-11T05:54:32.348Z,3.10
2019-01-11T05:57:02.137Z,3.10
2019-01-11T05:59:31.851Z,3.10
2019-01-11T06:02:02.550Z,3.10
2019-01-11T06:04:33.904Z,3.10
2019-01-11T06:07:14.133Z,3.10
2019-01-11T06:09:43.771Z,3.10
2019-01-11T06:12:13.545Z,3.10
2019-01-11T06:14:43.870Z,3.10
2019-01-11T06:17:14.100Z,3.10
2019-01-11T06:19:43.891Z,3.10
2019-01-11T06:22:13.764Z,3.20
2019-01-11T06:24:43.485Z,3.20
2019-01-11T06:27:13.323Z,3.20
2019-01-11T06:29:43.063Z,3.20
2019-01-11T06:32:13.087Z,3.20
2019-01-11T06:34:42.943Z,3.20
2019-01-11T06:37:12.597Z,3.20
2019-01-11T06:39:42.373Z,3.20
2019-01-11T06:42:13.668Z,3.20
2019-01-11T06:44:43.378Z,3.20
2019-01-11T06:47:13.172Z,3.20
2019-01-11T06:49:42.896Z,3.20
2019-01-11T06:52:12.647Z,3.20
2019-01-11T06:54:42.362Z,3.30
2019-01-11T06:57:12.034Z,3.20
2019-01-11T06:59:41.751Z,3.20
2019-01-11T07:02:11.609Z,3.30
2019-01-11T07:04:41.635Z,3.30
2019-01-11T07:07:11.442Z,3.30
2019-01-11T07:09:41.197Z,3.30
2019-01-11T07:12:11.194Z,3.30
2019-01-11T07:14:41.010Z,3.30
2019-01-11T07:17:10.842Z,3.40
2019-01-11T07:19:40.506Z,3.30
2019-01-11T07:22:10.359Z,3.30
2019-01-11T07:24:40.169Z,3.40
2019-01-11T07:27:09.980Z,3.40
2019-01-11T07:29:39.734Z,3.40
2019-01-11T07:32:09.382Z,3.40
2019-01-11T07:34:39.451Z,3.40
2019-01-11T07:37:09.220Z,3.40
2019-01-11T07:39:38.967Z,3.40
2019-01-11T07:42:09.146Z,3.40
2019-01-11T07:44:38.896Z,3.40
2019-01-11T07:47:08.775Z,3.50
2019-01-11T07:49:38.492Z,3.50
2019-01-11T07:52:08.322Z,3.50
2019-01-11T07:54:38.008Z,3.50
2019-01-11T07:57:07.876Z,3.50
2019-01-11T07:59:37.553Z,3.50
2019-01-11T08:02:07.385Z,3.60
2019-01-11T08:04:37.129Z,3.60
2019-01-11T08:07:06.982Z,3.50
2019-01-11T08:09:36.708Z,3.60
2019-01-11T08:12:06.804Z,3.60
2019-01-11T08:14:36.622Z,3.60
2019-01-11T08:17:06.789Z,3.60
2019-01-11T08:19:36.488Z,3.70
2019-01-11T08:22:07.905Z,3.70
2019-01-11T08:24:39.396Z,3.70
2019-01-11T08:27:09.037Z,3.80
2019-01-11T08:29:38.689Z,3.70
2019-01-11T08:32:32.799Z,3.80
2019-01-11T08:35:04.252Z,3.70
2019-01-11T08:37:34.000Z,3.80
2019-01-11T08:40:03.947Z,3.80
2019-01-11T08:42:33.738Z,3.80
2019-01-11T08:45:04.941Z,3.80
2019-01-11T08:47:34.754Z,3.80
2019-01-11T08:50:07.936Z,3.80
2019-01-11T08:52:37.658Z,3.80
2019-01-11T08:55:07.850Z,3.90
2019-01-11T08:57:37.580Z,3.80
2019-01-11T09:00:12.122Z,3.90
2019-01-11T09:02:41.888Z,3.90
2019-01-11T09:05:11.760Z,3.90
2019-01-11T09:07:41.797Z,3.90
2019-01-11T09:10:22.716Z,4.00
2019-01-11T09:12:49.551Z,4.00
2019-01-11T09:15:19.361Z,4.00
2019-01-11T09:18:02.909Z,4.00
2019-01-11T09:20:32.610Z,4.00
2019-01-11T09:23:02.298Z,4.10
2019-01-11T09:25:32.141Z,4.10
2019-01-11T09:28:02.092Z,4.20
2019-01-11T09:30:31.928Z,4.20
2019-01-11T09:33:01.956Z,4.20
2019-01-11T09:35:31.658Z,4.20
2019-01-11T09:38:01.415Z,4.30
2019-01-11T09:40:31.173Z,4.30
2019-01-11T09:43:01.025Z,4.20
2019-01-11T09:45:30.723Z,4.30
2019-01-11T09:48:00.460Z,4.30
2019-01-11T09:50:30.140Z,4.30
2019-01-11T09:52:59.945Z,4.30
2019-01-11T09:55:30.709Z,4.40
2019-01-11T09:58:00.422Z,4.40
2019-01-11T10:00:30.577Z,4.50
2019-01-11T10:03:01.923Z,4.50
2019-01-11T10:05:31.959Z,4.60
2019-01-11T10:08:02.671Z,4.60
2019-01-11T10:10:32.391Z,4.60
2019-01-11T10:13:02.188Z,4.70
2019-01-11T10:15:32.072Z,4.70
2019-01-11T10:18:01.830Z,4.70
2019-01-11T10:20:31.479Z,4.70
2019-01-11T10:23:01.241Z,4.70
2019-01-11T10:25:31.050Z,4.80
2019-01-11T10:28:00.764Z,4.80
2019-01-11T10:30:30.471Z,4.80
2019-01-11T10:33:00.206Z,4.90
2019-01-11T10:35:29.929Z,4.90
2019-01-11T10:37:59.657Z,4.90
2019-01-11T10:40:29.353Z,4.90
2019-01-11T10:42:59.973Z,4.90
2019-01-11T10:45:29.692Z,5.00
2019-01-11T10:47:59.539Z,5.10
2019-01-11T10:50:29.422Z,5.10
2019-01-11T10:52:59.114Z,5.20
2019-01-11T10:55:28.776Z,5.10
2019-01-11T10:57:58.451Z,5.20
2019-01-11T11:00:28.642Z,5.20
2019-01-11T11:02:58.646Z,5.20
2019-01-11T11:05:28.821Z,5.30
2019-01-11T11:07:58.729Z,5.20
2019-01-11T11:10:28.445Z,5.30
2019-01-11T11:12:58.160Z,5.30
2019-01-11T11:15:28.047Z,5.30
2019-01-11T11:17:58.206Z,5.40
2019-01-11T11:20:27.921Z,5.40
2019-01-11T11:22:57.801Z,5.40
2019-01-11T11:25:27.478Z,5.50
2019-01-11T11:27:57.183Z,5.50
2019-01-11T11:30:26.861Z,5.60
2019-01-11T11:32:57.433Z,5.60
2019-01-11T11:35:27.334Z,5.70
2019-01-11T11:37:57.514Z,5.70
2019-01-11T11:40:27.871Z,5.70
2019-01-11T11:42:57.642Z,5.70
2019-01-11T11:45:27.620Z,5.70
2019-01-11T11:47:57.438Z,5.70
2019-01-11T11:50:27.247Z,5.80
2019-01-11T11:52:57.075Z,5.80
2019-01-11T11:55:26.809Z,5.80
2019-01-11T11:57:56.588Z,5.80
2019-01-11T12:00:27.243Z,5.80
2019-01-11T12:02:57.206Z,5.80
2019-01-11T12:05:26.981Z,5.80
2019-01-11T12:07:56.901Z,5.90
2019-01-11T12:10:26.998Z,5.90
2019-01-11T12:12:56.664Z,5.90
2019-01-11T12:15:26.413Z,5.90
2019-01-11T12:17:56.078Z,6.00
2019-01-11T12:20:29.468Z,6.00
2019-01-11T12:22:59.542Z,6.00
2019-01-11T12:25:29.411Z,6.00
2019-01-11T12:27:59.264Z,6.00
2019-01-11T12:30:29.080Z,6.10
2019-01-11T12:32:58.775Z,6.10
2019-01-11T12:35:28.429Z,6.10
2019-01-11T12:37:58.161Z,6.10
2019-01-11T12:40:27.943Z,6.20
2019-01-11T12:42:57.676Z,6.20
2019-01-11T12:45:27.401Z,6.10
2019-01-11T12:47:57.044Z,6.20
2019-01-11T12:50:26.902Z,6.20
2019-01-11T12:52:56.796Z,6.20
2019-01-11T12:55:26.564Z,6.30
2019-01-11T12:57:56.303Z,6.30
2019-01-11T13:00:26.551Z,6.30
2019-01-11T13:02:56.297Z,6.30
2019-01-11T13:05:26.206Z,6.40
2019-01-11T13:07:55.991Z,6.50
2019-01-11T13:10:25.651Z,6.50
2019-01-11T13:12:55.449Z,6.50
2019-01-11T13:15:25.253Z,6.50
2019-01-11T13:17:55.318Z,6.50
2019-01-11T13:20:25.418Z,6.50
2019-01-11T13:22:55.527Z,6.50
2019-01-11T13:25:25.217Z,6.70
2019-01-11T13:27:55.085Z,6.70
2019-01-11T13:30:24.947Z,6.80
2019-01-11T13:32:54.707Z,6.80
2019-01-11T13:35:24.456Z,6.80
2019-01-11T13:37:54.229Z,6.80
2019-01-11T13:40:24.719Z,6.80
2019-01-11T13:42:54.566Z,6.80
2019-01-11T13:45:24.456Z,6.90
2019-01-11T13:47:54.268Z,6.90
2019-01-11T13:50:33.542Z,7.00
2019-01-11T13:53:03.402Z,7.10
2019-01-11T13:55:33.258Z,7.10
2019-01-11T13:58:03.103Z,7.10
2019-01-11T14:00:33.007Z,7.10
2019-01-11T14:03:02.843Z,7.00
2019-01-11T14:05:32.736Z,7.00
2019-01-11T14:08:02.544Z,7.00
2019-01-11T14:10:32.284Z,7.10
2019-01-11T14:13:02.032Z,7.00
2019-01-11T14:15:32.004Z,7.10
2019-01-11T14:18:01.851Z,7.10
2019-01-11T14:20:31.642Z,7.20
2019-01-11T14:23:01.358Z,7.10
2019-01-11T14:25:31.129Z,7.10
2019-01-11T14:28:00.796Z,7.10
2019-01-11T14:30:30.632Z,7.10
2019-01-11T14:33:00.428Z,7.10
2019-01-11T14:35:30.236Z,7.10
2019-01-11T14:38:00.104Z,7.00
2019-01-11T14:40:29.885Z,7.00
2019-01-11T14:42:59.588Z,7.00
2019-01-11T14:45:29.371Z,7.10
2019-01-11T14:47:59.075Z,7.00
2019-01-11T14:50:28.946Z,7.10
2019-01-11T14:52:58.782Z,7.20
2019-01-11T14:55:28.864Z,7.20
2019-01-11T14:57:58.546Z,7.20
2019-01-11T15:00:28.289Z,7.20
2019-01-11T15:02:58.055Z,7.20
2019-01-11T15:05:27.782Z,7.30
2019-01-11T15:07:57.496Z,7.30
2019-01-11T15:10:27.338Z,7.30
2019-01-11T15:12:57.204Z,7.30
2019-01-11T15:15:26.948Z,7.20
2019-01-11T15:17:56.679Z,7.20
2019-01-11T15:20:26.417Z,7.10
2019-01-11T15:22:56.153Z,7.10
2019-01-11T15:25:25.982Z,7.10
2019-01-11T15:27:55.715Z,7.10
2019-01-11T15:30:25.584Z,7.10
2019-01-11T15:32:55.307Z,7.10
2019-01-11T15:35:25.647Z,7.10
2019-01-11T15:37:55.694Z,7.20
2019-01-11T15:40:27.265Z,7.30
2019-01-11T15:42:57.013Z,7.20
2019-01-11T15:45:26.733Z,7.20
2019-01-11T15:47:56.574Z,7.20
2019-01-11T15:50:42.962Z,7.30
2019-01-11T15:53:12.852Z,7.20
2019-01-11T15:55:42.695Z,7.20
2019-01-11T15:58:12.599Z,7.20
2019-01-11T16:00:45.257Z,7.20
2019-01-11T16:03:15.515Z,7.20
2019-01-11T16:05:45.518Z,7.20
2019-01-11T16:08:15.224Z,7.20
2019-01-11T16:11:16.143Z,7.20
2019-01-11T16:14:18.131Z,7.20
2019-01-11T16:16:49.213Z,7.10
2019-01-11T16:19:18.923Z,7.30
2019-01-11T16:21:48.623Z,7.20
2019-01-11T16:24:18.330Z,7.20
2019-01-11T16:26:48.090Z,7.20
2019-01-11T16:29:17.825Z,7.10
2019-01-11T16:31:47.530Z,7.10
2019-01-11T16:34:17.337Z,7.20
2019-01-11T16:36:47.090Z,7.10
2019-01-11T16:39:17.217Z,7.10
2019-01-11T16:41:46.978Z,7.10
2019-01-11T16:44:16.691Z,7.10
2019-01-11T16:46:46.356Z,7.10
2019-01-11T16:49:16.106Z,7.10
2019-01-11T16:51:45.930Z,7.10
2019-01-11T16:54:15.597Z,7.20
2019-01-11T16:56:45.265Z,7.10
2019-01-11T16:59:14.992Z,7.00
2019-01-11T17:01:44.711Z,7.10
2019-01-11T17:04:14.532Z,7.20
2019-01-11T17:06:44.296Z,7.30
2019-01-11T17:09:14.215Z,7.20
2019-01-11T17:11:43.928Z,7.10
2019-01-11T17:14:13.676Z,7.10
2019-01-11T17:16:43.482Z,7.10
2019-01-11T17:19:13.231Z,7.10
2019-01-11T17:21:42.981Z,7.10
2019-01-11T17:24:12.754Z,7.20
2019-01-11T17:26:42.475Z,7.10
2019-01-11T17:29:12.266Z,7.10
2019-01-11T17:31:41.932Z,7.10
2019-01-11T17:34:11.621Z,7.10
2019-01-11T17:36:41.363Z,7.10
2019-01-11T17:39:11.258Z,7.20
2019-01-11T17:41:41.115Z,7.10
2019-01-11T17:44:10.925Z,7.10
2019-01-11T17:46:40.713Z,7.10
2019-01-11T17:49:10.538Z,7.10
2019-01-11T17:51:40.364Z,7.10
2019-01-11T17:54:10.031Z,7.10
2019-01-11T17:56:39.965Z,7.10
2019-01-11T17:59:09.609Z,7.10
2019-01-11T18:01:39.387Z,7.20
2019-01-11T18:04:09.118Z,7.20
2019-01-11T18:06:38.983Z,7.10
2019-01-11T18:09:09.213Z,7.00
2019-01-11T18:11:38.843Z,7.10
2019-01-11T18:14:08.600Z,7.10
2019-01-11T18:16:38.631Z,7.10
2019-01-11T18:19:08.402Z,7.10
2019-01-11T18:21:38.116Z,7.10
2019-01-11T18:24:07.953Z,7.10
2019-01-11T18:26:37.646Z,7.10
2019-01-11T18:29:07.453Z,7.10
2019-01-11T18:31:37.105Z,7.10
2019-01-11T18:34:07.155Z,7.10
2019-01-11T18:36:36.973Z,7.00
2019-01-11T18:39:08.954Z,7.00
2019-01-11T18:41:38.862Z,7.00
2019-01-11T18:44:08.586Z,7.00
2019-01-11T18:46:38.356Z,7.00
2019-01-11T18:49:08.177Z,7.00
2019-01-11T18:51:37.848Z,7.10
2019-01-11T18:54:07.493Z,7.10
2019-01-11T18:56:37.254Z,7.10
2019-01-11T18:59:07.002Z,7.10
2019-01-11T19:01:36.668Z,7.20
2019-01-11T19:04:06.398Z,7.10
2019-01-11T19:06:36.174Z,7.10
2019-01-11T19:09:08.612Z,7.00
2019-01-11T19:11:38.372Z,7.00
2019-01-11T19:14:08.214Z,7.00
2019-01-11T19:16:37.886Z,7.00
2019-01-11T19:19:07.870Z,7.00
2019-01-11T19:21:37.736Z,7.00
2019-01-11T19:24:07.563Z,7.00
2019-01-11T19:26:37.220Z,7.00
2019-01-11T19:29:08.433Z,7.00
2019-01-11T19:31:38.091Z,7.00
2019-01-11T19:34:07.779Z,7.00
2019-01-11T19:36:37.549Z,7.00
2019-01-11T19:39:08.655Z,7.00
2019-01-11T19:41:38.493Z,7.00
2019-01-11T19:44:08.193Z,7.00
2019-01-11T19:46:37.893Z,7.00
2019-01-11T19:49:07.707Z,7.00
2019-01-11T19:51:37.382Z,7.10
2019-01-11T19:54:07.301Z,7.10
2019-01-11T19:56:36.967Z,7.00
2019-01-11T19:59:06.782Z,7.00
2019-01-11T20:01:36.719Z,7.00
2019-01-11T20:04:06.652Z,7.00
2019-01-11T20:06:36.488Z,6.90
2019-01-11T20:09:08.890Z,6.90
2019-01-11T20:11:38.754Z,7.00
2019-01-11T20:14:08.899Z,7.00
2019-01-11T20:16:38.713Z,7.00
2019-01-11T20:19:08.525Z,7.00
2019-01-11T20:21:38.343Z,7.00
2019-01-11T20:24:08.052Z,7.10
2019-01-11T20:26:37.954Z,7.10
2019-01-11T20:29:07.923Z,7.00
2019-01-11T20:31:37.717Z,6.90
2019-01-11T20:34:07.527Z,7.00
2019-01-11T20:36:41.775Z,6.90
2019-01-11T20:39:12.160Z,7.00
2019-01-11T20:41:41.972Z,7.00
2019-01-11T20:44:11.735Z,6.90
2019-01-11T20:46:41.494Z,6.90
2019-01-11T20:49:11.345Z,6.90
2019-01-11T20:51:41.459Z,6.90
2019-01-11T20:54:11.190Z,6.90
2019-01-11T20:56:40.993Z,6.90
2019-01-11T20:59:10.828Z,6.90
2019-01-11T21:01:40.469Z,6.90
2019-01-11T21:04:10.224Z,6.90
2019-01-11T21:06:40.010Z,6.90
2019-01-11T21:09:10.347Z,6.90
2019-01-11T21:11:40.278Z,6.90
2019-01-11T21:14:10.160Z,6.90
2019-01-11T21:16:39.997Z,6.90
2019-01-11T21:19:09.733Z,6.80
2019-01-11T21:21:39.481Z,6.80
2019-01-11T21:24:09.262Z,6.80
2019-01-11T21:26:39.076Z,6.90
2019-01-11T21:29:08.764Z,6.90
2019-01-11T21:31:38.573Z,6.90
2019-01-11T21:34:08.744Z,6.90
2019-01-11T21:36:38.564Z,6.90
2019-01-11T21:39:08.766Z,6.90
2019-01-11T21:41:38.546Z,6.90
2019-01-11T21:44:08.429Z,6.90
2019-01-11T21:46:38.183Z,7.00
2019-01-11T21:49:07.944Z,7.00
2019-01-11T21:51:37.679Z,6.90
2019-01-11T21:54:07.622Z,6.90
2019-01-11T21:56:37.287Z,6.90
2019-01-11T21:59:07.126Z,6.90
2019-01-11T22:01:37.011Z,6.90
2019-01-11T22:04:06.695Z,6.90
2019-01-11T22:06:36.424Z,6.80
2019-01-11T22:09:08.893Z,6.80
2019-01-11T22:11:38.692Z,6.90
2019-01-11T22:14:08.423Z,6.90
2019-01-11T22:16:38.128Z,6.90
2019-01-11T22:19:07.946Z,6.90
2019-01-11T22:21:37.755Z,6.90
2019-01-11T22:24:07.580Z,6.90
2019-01-11T22:26:37.318Z,6.90
2019-01-11T22:29:08.090Z,6.90
2019-01-11T22:31:37.952Z,6.90
2019-01-11T22:34:07.851Z,6.80
2019-01-11T22:36:37.659Z,6.90
2019-01-11T22:39:09.366Z,6.90
2019-01-11T22:41:39.142Z,6.90
2019-01-11T22:44:08.964Z,6.90
2019-01-11T22:46:39.713Z,6.90
2019-01-11T22:49:09.424Z,6.90
2019-01-11T22:51:39.164Z,6.80
2019-01-11T22:54:10.453Z,6.80
2019-01-11T22:56:40.374Z,6.80
2019-01-11T22:59:10.061Z,6.80
2019-01-11T23:01:50.462Z,6.80
2019-01-11T23:04:21.367Z,6.80
2019-01-11T23:07:05.355Z,6.80
2019-01-11T23:09:39.713Z,6.80
2019-01-11T23:12:31.466Z,6.80
2019-01-11T23:15:01.187Z,6.80
2019-01-11T23:17:38.140Z,6.80
2019-01-11T23:20:12.189Z,6.80
2019-01-11T23:22:41.828Z,6.80
2019-01-11T23:25:11.737Z,6.80
2019-01-11T23:27:41.879Z,6.80
2019-01-11T23:30:17.811Z,6.80
2019-01-11T23:32:47.557Z,6.80
2019-01-11T23:35:17.421Z,6.70
2019-01-11T23:37:47.125Z,6.70
2019-01-11T23:40:17.300Z,6.70
2019-01-11T23:42:47.031Z,6.70
2019-01-11T23:45:16.824Z,6.70
2019-01-11T23:47:46.603Z,6.70
2019-01-11T23:50:17.216Z,6.70
2019-01-11T23:52:47.036Z,6.70
2019-01-11T23:55:16.851Z,6.70
2019-01-11T23:57:46.601Z,6.70
